Bluff Springs, Texas
Current Conditions -  °F | °C
As of 12:53 PM on Tuesday 21 Oct 2014 (Local Time) from KAUS Reporting Station
Few Clouds Few Clouds  
Wind Chill: 78°   Ceiling: Unl
Heat Index: 79°   Visibility: 10mi
Dew Point: 59°   Wind: 12mph
Humidity: 52%   Direction: 50°NE
Pressure: 30.06"   Gusts: NA
Location:  30.1791°N, 97.7294°W
Report Text: KAUS 211753Z 05010KT 10SM FEW042 FEW200 26/15 A3006 RMK AO2 SLP172 T02560150 10256 20122 58014
Loading
Personal Weather Stations






























Interactive Weather Map New forecast layout! Learn more

10-Day Weather Forecast

Advertisements
Track Severe Weather on mobile